createdAt,value
2019-01-28T00:00:57.668Z,2.60
2019-01-28T00:03:27.987Z,2.80
2019-01-28T00:05:57.534Z,2.77
2019-01-28T00:08:27.611Z,2.60
2019-01-28T00:10:57.256Z,2.87
2019-01-28T00:13:42.294Z,2.90
2019-01-28T00:16:12.197Z,2.67
2019-01-28T00:18:41.740Z,2.17
2019-01-28T00:21:11.662Z,3.10
2019-01-28T00:23:41.531Z,2.70
2019-01-28T00:26:11.493Z,2.40
2019-01-28T00:28:41.415Z,2.70
2019-01-28T00:31:11.220Z,3.10
2019-01-28T00:33:41.085Z,2.73
2019-01-28T00:36:10.627Z,2.87
2019-01-28T00:38:40.517Z,2.37
2019-01-28T00:41:10.081Z,2.80
2019-01-28T00:43:39.620Z,2.97
2019-01-28T00:46:22.324Z,3.47
2019-01-28T00:48:52.645Z,2.90
2019-01-28T00:51:22.770Z,2.70
2019-01-28T00:53:52.681Z,3.20
2019-01-28T00:56:22.229Z,3.07
2019-01-28T00:58:52.176Z,3.43
2019-01-28T01:01:22.122Z,2.83
2019-01-28T01:03:52.128Z,2.67
2019-01-28T01:06:21.716Z,2.70
2019-01-28T01:08:51.280Z,2.53
2019-01-28T01:11:20.892Z,2.70
2019-01-28T01:13:50.448Z,2.23
2019-01-28T01:16:20.461Z,1.90
2019-01-28T01:18:50.076Z,2.70
2019-01-28T01:21:19.709Z,1.87
2019-01-28T01:23:50.617Z,2.40
2019-01-28T01:26:20.151Z,2.70
2019-01-28T01:28:49.981Z,1.73
2019-01-28T01:31:19.846Z,2.17
2019-01-28T01:33:50.059Z,2.40
2019-01-28T01:36:19.748Z,2.63
2019-01-28T01:38:49.361Z,2.53
2019-01-28T01:41:18.897Z,2.43
2019-01-28T01:43:48.522Z,2.10
2019-01-28T01:46:18.425Z,2.50
2019-01-28T01:48:48.316Z,3.00
2019-01-28T01:51:18.232Z,2.37
2019-01-28T01:53:48.108Z,2.10
2019-01-28T01:56:17.886Z,3.00
2019-01-28T01:58:47.424Z,2.17
2019-01-28T02:01:17.156Z,2.53
2019-01-28T02:03:46.994Z,2.80
2019-01-28T02:06:16.993Z,2.17
2019-01-28T02:08:46.599Z,2.37
2019-01-28T02:11:16.744Z,2.33
2019-01-28T02:13:46.628Z,2.27
2019-01-28T02:16:16.246Z,2.87
2019-01-28T02:18:45.880Z,2.57
2019-01-28T02:21:15.444Z,3.10
2019-01-28T02:23:45.664Z,2.70
2019-01-28T02:26:15.582Z,2.37
2019-01-28T02:28:45.124Z,2.53
2019-01-28T02:31:14.663Z,3.00
2019-01-28T02:33:44.220Z,2.33
2019-01-28T02:36:13.817Z,2.67
2019-01-28T02:38:43.396Z,2.30
2019-01-28T02:41:13.208Z,2.17
2019-01-28T02:43:42.761Z,2.57
2019-01-28T02:46:34.040Z,2.80
2019-01-28T02:49:03.582Z,2.37
2019-01-28T02:51:33.124Z,1.90
2019-01-28T02:54:02.680Z,2.20
2019-01-28T02:56:32.644Z,2.17
2019-01-28T02:59:02.476Z,1.93
2019-01-28T03:01:32.181Z,2.33
2019-01-28T03:04:02.005Z,2.00
2019-01-28T03:06:32.012Z,2.20
2019-01-28T03:09:01.573Z,1.63
2019-01-28T03:11:31.448Z,2.07
2019-01-28T03:14:01.344Z,2.13
2019-01-28T03:16:31.157Z,2.00
2019-01-28T03:19:00.969Z,2.43
2019-01-28T03:21:30.777Z,1.77
2019-01-28T03:24:00.396Z,1.73
2019-01-28T03:26:29.931Z,1.80
2019-01-28T03:28:59.480Z,2.00
2019-01-28T03:31:29.116Z,1.60
2019-01-28T03:33:58.694Z,1.80
2019-01-28T03:36:28.327Z,1.70
2019-01-28T03:39:40.819Z,1.80
2019-01-28T03:42:11.348Z,1.80
2019-01-28T03:44:40.966Z,1.70
2019-01-28T03:47:10.685Z,2.17
2019-01-28T03:49:40.275Z,1.43
2019-01-28T03:52:11.472Z,2.00
2019-01-28T03:54:41.432Z,1.60
2019-01-28T03:57:11.250Z,1.90
2019-01-28T03:59:41.421Z,1.90
2019-01-28T04:02:11.041Z,2.00
2019-01-28T04:04:40.877Z,1.90
2019-01-28T04:07:10.797Z,1.50
2019-01-28T04:09:40.708Z,1.30
2019-01-28T04:12:10.525Z,1.30
2019-01-28T04:14:40.428Z,1.70
2019-01-28T04:17:10.345Z,1.33
2019-01-28T04:19:40.158Z,1.20
2019-01-28T04:22:09.700Z,1.50
2019-01-28T04:24:39.249Z,1.20
2019-01-28T04:27:08.795Z,1.30
2019-01-28T04:29:38.577Z,1.20
2019-01-28T04:32:08.134Z,1.40
2019-01-28T04:34:37.671Z,1.40
2019-01-28T04:37:07.544Z,0.90
2019-01-28T04:39:37.167Z,1.60
2019-01-28T04:42:06.883Z,1.30
2019-01-28T04:44:36.729Z,1.10
2019-01-28T04:47:06.744Z,1.43
2019-01-28T04:49:36.319Z,1.50
2019-01-28T04:52:05.936Z,1.17
2019-01-28T04:54:35.493Z,1.80
2019-01-28T04:57:05.327Z,1.20
2019-01-28T04:59:34.893Z,1.30
2019-01-28T05:02:04.593Z,1.20
2019-01-28T05:04:34.397Z,1.37
2019-01-28T05:07:04.124Z,1.20
2019-01-28T05:09:33.988Z,1.10
2019-01-28T05:12:03.850Z,0.90
2019-01-28T05:14:33.392Z,0.90
2019-01-28T05:17:03.016Z,1.13
2019-01-28T05:19:32.578Z,0.87
2019-01-28T05:22:02.359Z,0.93
2019-01-28T05:24:31.900Z,1.30
2019-01-28T05:27:01.526Z,1.03
2019-01-28T05:29:31.068Z,0.93
2019-01-28T05:32:01.269Z,0.80
2019-01-28T05:34:30.904Z,1.07
2019-01-28T05:37:00.714Z,1.10
2019-01-28T05:39:30.254Z,0.80
2019-01-28T05:41:59.843Z,0.70
2019-01-28T05:44:29.634Z,1.13
2019-01-28T05:46:59.271Z,1.00
2019-01-28T05:49:29.149Z,1.03
2019-01-28T05:51:58.693Z,1.10
2019-01-28T05:54:28.496Z,1.00
2019-01-28T05:56:58.589Z,0.80
2019-01-28T05:59:28.396Z,0.70
2019-01-28T06:01:58.217Z,1.13
2019-01-28T06:04:27.761Z,0.70
2019-01-28T06:06:57.628Z,0.93
2019-01-28T06:09:28.113Z,1.10
2019-01-28T06:11:57.969Z,1.07
2019-01-28T06:14:27.776Z,1.20
2019-01-28T06:16:57.584Z,1.10
2019-01-28T06:19:27.123Z,0.90
2019-01-28T06:21:57.005Z,1.07
2019-01-28T06:24:26.813Z,0.77
2019-01-28T06:26:56.378Z,0.83
2019-01-28T06:29:25.916Z,0.93
2019-01-28T06:31:55.464Z,0.87
2019-01-28T06:34:25.545Z,0.70
2019-01-28T06:36:55.388Z,0.60
2019-01-28T06:39:25.268Z,0.80
2019-01-28T06:41:54.884Z,0.97
2019-01-28T06:44:55.100Z,0.80
2019-01-28T06:47:25.016Z,0.70
2019-01-28T06:49:54.828Z,0.73
2019-01-28T06:52:24.388Z,0.73
2019-01-28T06:54:54.241Z,1.20
2019-01-28T06:58:00.363Z,0.90
2019-01-28T07:00:32.483Z,0.90
2019-01-28T07:03:02.690Z,0.87
2019-01-28T07:05:32.292Z,0.67
2019-01-28T07:08:02.108Z,0.70
2019-01-28T07:10:31.920Z,0.77
2019-01-28T07:13:01.444Z,0.90
2019-01-28T07:15:31.539Z,0.87
2019-01-28T07:18:31.665Z,0.70
2019-01-28T07:21:01.468Z,1.00
2019-01-28T07:23:34.064Z,1.00
2019-01-28T07:26:03.956Z,1.00
2019-01-28T07:28:33.499Z,1.07
2019-01-28T07:31:03.109Z,1.20
2019-01-28T07:33:34.932Z,1.10
2019-01-28T07:36:04.608Z,1.33
2019-01-28T07:38:34.401Z,0.93
2019-01-28T07:41:04.360Z,0.80
2019-01-28T07:43:33.887Z,0.80
2019-01-28T07:46:04.093Z,0.90
2019-01-28T07:48:34.068Z,1.13
2019-01-28T07:51:03.955Z,0.80
2019-01-28T07:53:33.827Z,0.93
2019-01-28T07:56:04.975Z,0.93
2019-01-28T07:58:34.584Z,1.00
2019-01-28T08:01:04.292Z,0.90
2019-01-28T08:03:34.141Z,1.00
2019-01-28T08:06:04.125Z,0.90
2019-01-28T08:08:33.931Z,1.00
2019-01-28T08:11:03.692Z,1.10
2019-01-28T08:13:33.645Z,1.00
2019-01-28T08:16:03.461Z,0.83
2019-01-28T08:18:32.993Z,1.00
2019-01-28T08:21:02.518Z,0.63
2019-01-28T08:23:32.140Z,1.20
2019-01-28T08:26:05.462Z,0.80
2019-01-28T08:28:44.492Z,1.00
2019-01-28T08:31:14.011Z,0.90
2019-01-28T08:33:43.809Z,1.60
2019-01-28T08:36:13.722Z,1.00
2019-01-28T08:38:43.260Z,0.90
2019-01-28T08:41:13.204Z,1.20
2019-01-28T08:43:43.053Z,1.00
2019-01-28T08:46:12.581Z,1.10
2019-01-28T08:48:42.473Z,1.40
2019-01-28T08:51:12.385Z,1.30
2019-01-28T08:53:42.129Z,0.90
2019-01-28T08:56:16.670Z,1.20
2019-01-28T08:58:43.128Z,0.87
2019-01-28T09:01:12.964Z,1.30
2019-01-28T09:03:42.499Z,1.00
2019-01-28T09:06:12.337Z,1.07
2019-01-28T09:08:42.190Z,0.90
2019-01-28T09:11:12.118Z,1.27
2019-01-28T09:13:42.217Z,1.13
2019-01-28T09:16:11.756Z,1.00
2019-01-28T09:18:41.636Z,1.00
2019-01-28T09:21:23.907Z,1.30
2019-01-28T09:23:53.458Z,1.30
2019-01-28T09:26:23.260Z,1.40
2019-01-28T09:28:53.169Z,1.00
2019-01-28T09:31:22.793Z,1.03
2019-01-28T09:34:16.559Z,1.43
2019-01-28T09:36:46.100Z,1.07
2019-01-28T09:39:15.712Z,1.27
2019-01-28T09:41:45.572Z,1.10
2019-01-28T09:44:15.125Z,1.23
2019-01-28T09:46:45.194Z,1.03
2019-01-28T09:49:15.008Z,0.97
2019-01-28T09:51:44.619Z,0.90
2019-01-28T09:54:14.521Z,0.70
2019-01-28T09:56:44.335Z,0.73
2019-01-28T09:59:14.176Z,0.73
2019-01-28T10:01:44.069Z,1.07
2019-01-28T10:04:13.592Z,0.80
2019-01-28T10:07:16.466Z,0.87
2019-01-28T10:10:03.592Z,0.90
2019-01-28T10:13:12.695Z,0.77
2019-01-28T10:15:42.488Z,0.67
2019-01-28T10:18:12.917Z,2.60
2019-01-28T10:20:45.022Z,1.20
2019-01-28T10:23:14.756Z,1.40
2019-01-28T10:25:44.656Z,1.10
2019-01-28T10:28:14.541Z,0.87
2019-01-28T10:30:44.992Z,1.00
2019-01-28T10:33:14.743Z,1.13
2019-01-28T10:35:46.229Z,1.23
2019-01-28T10:38:16.001Z,0.73
2019-01-28T10:40:47.041Z,1.00
2019-01-28T10:43:16.664Z,0.80
2019-01-28T10:45:47.820Z,1.27
2019-01-28T10:48:18.344Z,1.77
2019-01-28T10:50:48.361Z,4.83
2019-01-28T10:53:18.271Z,1.93
2019-01-28T10:55:48.300Z,1.10
2019-01-28T10:58:18.308Z,1.60
2019-01-28T11:01:25.184Z,1.60
2019-01-28T11:03:54.715Z,1.83
2019-01-28T11:06:24.504Z,2.40
2019-01-28T11:08:54.018Z,2.13
2019-01-28T11:11:39.903Z,1.97
2019-01-28T11:14:09.970Z,1.93
2019-01-28T11:16:39.951Z,1.43
2019-01-28T11:19:09.868Z,1.93
2019-01-28T11:21:39.698Z,1.53
2019-01-28T11:24:09.701Z,2.60
2019-01-28T11:26:39.370Z,4.07
2019-01-28T11:29:09.492Z,1.60
2019-01-28T11:31:39.391Z,2.83
2019-01-28T11:34:09.561Z,2.20
2019-01-28T11:36:39.300Z,2.67
2019-01-28T11:39:10.521Z,4.93
2019-01-28T11:41:52.991Z,2.23
2019-01-28T11:44:22.703Z,1.70
2019-01-28T11:46:52.616Z,2.33
2019-01-28T11:49:22.291Z,2.00
2019-01-28T11:51:52.237Z,1.77
2019-01-28T11:54:21.764Z,3.57
2019-01-28T11:56:51.641Z,1.73
2019-01-28T11:59:21.456Z,2.20
2019-01-28T12:01:51.578Z,2.20
2019-01-28T12:04:21.380Z,1.37
2019-01-28T12:06:51.056Z,1.20
2019-01-28T12:09:21.208Z,1.50
2019-01-28T12:11:51.024Z,1.43
2019-01-28T12:14:20.659Z,1.63
2019-01-28T12:16:50.237Z,0.90
2019-01-28T12:19:19.776Z,1.20
2019-01-28T12:21:49.548Z,1.40
2019-01-28T12:24:19.079Z,1.10
2019-01-28T12:26:48.776Z,1.33
2019-01-28T12:29:18.677Z,0.90
2019-01-28T12:31:48.491Z,1.20
2019-01-28T12:34:18.048Z,1.30
2019-01-28T12:36:48.032Z,1.10
2019-01-28T12:39:17.592Z,1.27
2019-01-28T12:42:01.761Z,17.90
2019-01-28T12:44:31.580Z,10.90
2019-01-28T12:47:01.391Z,2.10
2019-01-28T12:49:46.208Z,1.93
2019-01-28T12:52:15.732Z,1.20
2019-01-28T12:54:45.560Z,0.80
2019-01-28T12:57:15.372Z,0.50
2019-01-28T12:59:45.186Z,0.30
2019-01-28T13:02:14.839Z,0.40
2019-01-28T13:04:44.448Z,0.30
2019-01-28T13:07:14.552Z,0.40
2019-01-28T13:09:44.085Z,0.67
2019-01-28T13:12:13.727Z,0.40
2019-01-28T13:14:43.641Z,0.50
2019-01-28T13:17:13.860Z,0.30
2019-01-28T13:19:43.420Z,0.40
2019-01-28T13:22:13.008Z,0.37
2019-01-28T13:24:42.994Z,0.40
2019-01-28T13:27:20.073Z,0.50
2019-01-28T13:29:49.908Z,0.30
2019-01-28T13:32:24.696Z,0.50
2019-01-28T13:34:54.491Z,0.20
2019-01-28T13:37:24.432Z,0.30
2019-01-28T13:39:54.371Z,0.40
2019-01-28T13:42:23.971Z,0.30
2019-01-28T13:44:53.773Z,0.20
2019-01-28T13:47:23.788Z,0.47
2019-01-28T13:49:54.000Z,0.30
2019-01-28T13:52:24.025Z,0.30
2019-01-28T13:54:53.930Z,0.10
2019-01-28T13:57:23.880Z,0.20
2019-01-28T14:00:01.408Z,0.30
2019-01-28T14:02:31.447Z,0.20
2019-01-28T14:05:01.257Z,0.20
2019-01-28T14:07:30.851Z,0.20
2019-01-28T14:10:54.596Z,0.20
2019-01-28T14:13:24.460Z,0.30
2019-01-28T14:15:54.139Z,0.40
2019-01-28T14:18:23.972Z,0.57
2019-01-28T14:20:55.265Z,0.50
2019-01-28T14:23:24.788Z,0.40
2019-01-28T14:25:54.385Z,0.53
2019-01-28T14:28:23.981Z,0.50
2019-01-28T14:30:53.507Z,0.30
2019-01-28T14:33:23.500Z,0.30
2019-01-28T14:35:53.509Z,0.40
2019-01-28T14:38:23.697Z,0.60
2019-01-28T14:40:53.612Z,0.50
2019-01-28T14:43:23.493Z,0.60
2019-01-28T14:45:53.433Z,0.30
2019-01-28T14:48:23.553Z,0.60
2019-01-28T14:50:53.805Z,0.40
2019-01-28T14:53:23.685Z,0.50
2019-01-28T14:55:53.488Z,0.50
2019-01-28T14:58:23.187Z,0.53
2019-01-28T15:00:52.784Z,0.43
2019-01-28T15:03:22.625Z,0.67
2019-01-28T15:05:52.451Z,0.80
2019-01-28T15:08:22.754Z,0.60
2019-01-28T15:10:52.344Z,0.60
2019-01-28T15:13:22.577Z,0.60
2019-01-28T15:15:52.488Z,0.93
2019-01-28T15:18:22.309Z,0.77
2019-01-28T15:20:52.124Z,0.73
2019-01-28T15:23:21.724Z,0.53
2019-01-28T15:25:51.636Z,0.80
2019-01-28T15:28:21.336Z,0.93
2019-01-28T15:31:44.644Z,0.70
2019-01-28T15:34:14.676Z,0.60
2019-01-28T15:36:44.543Z,0.73
2019-01-28T15:39:26.537Z,0.63
2019-01-28T15:41:56.449Z,0.97
2019-01-28T15:44:26.035Z,0.80
2019-01-28T15:46:55.613Z,0.60
2019-01-28T15:49:25.373Z,0.70
2019-01-28T15:51:55.181Z,0.50
2019-01-28T15:54:25.096Z,0.93
2019-01-28T15:56:55.009Z,0.90
2019-01-28T15:59:24.816Z,0.67
2019-01-28T16:01:54.736Z,0.40
2019-01-28T16:04:24.544Z,0.57
2019-01-28T16:07:10.941Z,0.80
2019-01-28T16:09:40.472Z,0.70
2019-01-28T16:12:10.145Z,0.70
2019-01-28T16:14:39.697Z,0.60
2019-01-28T16:17:18.683Z,0.40
2019-01-28T16:19:48.492Z,0.80
2019-01-28T16:22:18.119Z,0.73
2019-01-28T16:24:48.149Z,0.60
2019-01-28T16:27:18.569Z,0.50
2019-01-28T16:29:48.405Z,0.60
2019-01-28T16:32:18.272Z,0.40
2019-01-28T16:34:47.829Z,0.40
2019-01-28T16:37:17.685Z,0.63
2019-01-28T16:39:47.416Z,0.60
2019-01-28T16:42:17.028Z,0.90
2019-01-28T16:44:46.813Z,0.63
2019-01-28T16:47:16.331Z,0.50
2019-01-28T16:49:46.125Z,0.60
2019-01-28T16:52:15.724Z,0.63
2019-01-28T16:54:45.545Z,0.40
2019-01-28T16:57:15.145Z,0.50
2019-01-28T16:59:45.266Z,0.47
2019-01-28T17:02:14.832Z,0.50
2019-01-28T17:04:44.992Z,0.50
2019-01-28T17:07:14.900Z,0.73
2019-01-28T17:09:44.430Z,0.50
2019-01-28T17:12:26.708Z,0.50
2019-01-28T17:14:56.519Z,0.60
2019-01-28T17:17:26.047Z,0.33
2019-01-28T17:19:55.943Z,0.67
2019-01-28T17:22:25.748Z,0.63
2019-01-28T17:24:55.669Z,0.70
2019-01-28T17:27:25.544Z,0.57
2019-01-28T17:29:55.388Z,0.70
2019-01-28T17:32:25.251Z,0.60
2019-01-28T17:34:55.108Z,0.53
2019-01-28T17:37:46.432Z,0.50
2019-01-28T17:40:16.784Z,0.60
2019-01-28T17:42:46.328Z,0.60
2019-01-28T17:45:18.140Z,0.80
2019-01-28T17:47:48.233Z,0.60
2019-01-28T17:50:24.445Z,0.80
2019-01-28T17:52:49.413Z,0.70
2019-01-28T17:55:25.014Z,0.50
2019-01-28T17:57:54.955Z,0.70
2019-01-28T18:00:29.823Z,0.47
2019-01-28T18:03:00.302Z,0.50
2019-01-28T18:05:30.424Z,0.60
2019-01-28T18:08:01.395Z,0.60
2019-01-28T18:10:31.588Z,0.50
2019-01-28T18:13:01.600Z,0.50
2019-01-28T18:15:31.275Z,0.53
2019-01-28T18:18:00.906Z,0.90
2019-01-28T18:20:51.286Z,0.60
2019-01-28T18:23:19.945Z,1.00
2019-01-28T18:25:49.805Z,0.57
2019-01-28T18:28:19.328Z,0.50
2019-01-28T18:31:20.012Z,0.67
2019-01-28T18:33:50.162Z,0.40
2019-01-28T18:36:19.725Z,0.50
2019-01-28T18:38:49.696Z,0.43
2019-01-28T18:41:19.296Z,0.60
2019-01-28T18:43:49.205Z,0.50
2019-01-28T18:46:19.022Z,0.83
2019-01-28T18:48:48.895Z,0.80
2019-01-28T18:51:18.857Z,0.80
2019-01-28T18:53:48.964Z,0.90
2019-01-28T18:56:19.276Z,1.00
2019-01-28T18:58:49.100Z,0.57
2019-01-28T19:01:18.900Z,0.60
2019-01-28T19:03:48.710Z,0.70
2019-01-28T19:06:31.117Z,0.60
2019-01-28T19:09:12.500Z,0.60
2019-01-28T19:11:48.764Z,0.40
2019-01-28T19:14:36.331Z,0.40
2019-01-28T19:17:40.240Z,0.50
2019-01-28T19:20:51.072Z,0.53
2019-01-28T19:23:20.800Z,0.70
2019-01-28T19:25:50.824Z,0.50
2019-01-28T19:28:20.717Z,0.47
2019-01-28T19:30:51.056Z,0.97
2019-01-28T19:33:21.061Z,0.63
2019-01-28T19:35:51.000Z,0.40
2019-01-28T19:38:22.336Z,0.70
2019-01-28T19:40:52.220Z,0.50
2019-01-28T19:43:22.292Z,0.70
2019-01-28T19:45:52.278Z,0.60
2019-01-28T19:48:26.364Z,0.50
2019-01-28T19:50:56.082Z,0.72
2019-01-28T19:53:26.220Z,0.47
2019-01-28T19:55:55.767Z,0.80
2019-01-28T19:58:28.288Z,0.77
2019-01-28T20:00:57.892Z,0.57
2019-01-28T20:03:27.658Z,0.40
2019-01-28T20:05:57.342Z,0.70
2019-01-28T20:08:26.922Z,0.73
2019-01-28T20:10:56.916Z,0.40
2019-01-28T20:13:26.439Z,0.80
2019-01-28T20:15:56.007Z,0.80
2019-01-28T20:18:40.834Z,0.94
2019-01-28T20:21:10.836Z,0.60
2019-01-28T20:23:40.430Z,0.70
2019-01-28T20:26:09.976Z,1.17
2019-01-28T20:28:39.612Z,0.90
2019-01-28T20:31:09.155Z,1.07
2019-01-28T20:33:38.712Z,1.10
2019-01-28T20:36:08.280Z,1.00
2019-01-28T20:38:38.056Z,1.40
2019-01-28T20:41:07.897Z,1.20
2019-01-28T20:43:37.788Z,1.13
2019-01-28T20:46:07.484Z,0.90
2019-01-28T20:48:37.831Z,1.20
2019-01-28T20:51:07.932Z,0.90
2019-01-28T20:53:37.611Z,1.60
2019-01-28T20:56:07.337Z,1.43
2019-01-28T20:58:37.082Z,1.47
2019-01-28T21:01:07.503Z,1.83
2019-01-28T21:03:37.380Z,1.30
2019-01-28T21:06:07.776Z,1.43
2019-01-28T21:08:37.626Z,1.37
2019-01-28T21:11:07.432Z,1.43
2019-01-28T21:13:37.608Z,1.27
2019-01-28T21:16:11.360Z,1.30
2019-01-28T21:18:41.174Z,2.10
2019-01-28T21:21:10.976Z,1.70
2019-01-28T21:23:40.550Z,1.53
2019-01-28T21:26:10.463Z,1.20
2019-01-28T21:28:40.004Z,1.13
2019-01-28T21:31:09.919Z,1.33
2019-01-28T21:33:40.039Z,1.80
2019-01-28T21:36:28.080Z,2.30
2019-01-28T21:38:57.652Z,1.67
2019-01-28T21:41:27.172Z,1.40
2019-01-28T21:43:56.965Z,1.63
2019-01-28T21:46:27.009Z,1.30
2019-01-28T21:48:56.816Z,2.07
2019-01-28T21:51:26.632Z,1.70
2019-01-28T21:53:56.848Z,1.80
2019-01-28T21:56:26.769Z,1.70
2019-01-28T21:58:56.880Z,1.80
2019-01-28T22:01:26.776Z,1.87
2019-01-28T22:03:56.497Z,2.30
2019-01-28T22:06:26.423Z,1.40
2019-01-28T22:08:56.876Z,1.97
2019-01-28T22:11:28.087Z,1.57
2019-01-28T22:13:58.100Z,1.83
2019-01-28T22:16:38.045Z,1.27
2019-01-28T22:19:07.864Z,1.90
2019-01-28T22:21:37.992Z,1.53
2019-01-28T22:24:07.767Z,2.10
2019-01-28T22:26:37.310Z,1.97
2019-01-28T22:29:06.904Z,1.83
2019-01-28T22:31:36.524Z,2.07
2019-01-28T22:34:06.832Z,2.00
2019-01-28T22:36:36.850Z,1.37
2019-01-28T22:39:09.336Z,1.80
2019-01-28T22:41:40.846Z,1.63
2019-01-28T22:44:10.607Z,2.15
2019-01-28T22:46:40.131Z,2.10
2019-01-28T22:49:09.839Z,1.60
2019-01-28T22:51:39.679Z,1.30
2019-01-28T22:54:10.955Z,1.57
2019-01-28T22:56:41.276Z,1.70
2019-01-28T22:59:11.085Z,1.60
2019-01-28T23:01:41.444Z,1.83
2019-01-28T23:04:11.432Z,1.70
2019-01-28T23:06:41.336Z,2.10
2019-01-28T23:09:11.571Z,2.10
2019-01-28T23:11:41.473Z,2.10
2019-01-28T23:14:11.388Z,2.67
2019-01-28T23:16:40.912Z,2.63
2019-01-28T23:19:10.696Z,2.73
2019-01-28T23:21:40.517Z,3.03
2019-01-28T23:24:10.328Z,2.80
2019-01-28T23:26:39.960Z,3.13
2019-01-28T23:29:09.479Z,3.40
2019-01-28T23:31:39.001Z,3.47
2019-01-28T23:34:08.852Z,4.40
2019-01-28T23:36:38.380Z,3.30
2019-01-28T23:39:09.053Z,3.20
2019-01-28T23:41:38.676Z,2.90
2019-01-28T23:44:08.516Z,3.43
2019-01-28T23:46:38.516Z,2.97
2019-01-28T23:49:08.298Z,3.57
2019-01-28T23:51:38.300Z,3.03
2019-01-28T23:54:08.157Z,3.90
2019-01-28T23:56:37.680Z,3.67
2019-01-28T23:59:07.228Z,3.40
